Time;durP1;ratioP1;P1;durP2;ratioP2;P2;SDS_P1;SDS_P2;PMS_P1;PMS_P2;Temp;Humidity;BMP_temperature;BMP_pressure;BME280_temperature;BME280_humidity;BME280_pressure;Samples;Min_cycle;Max_cycle;Signal;HPM_P1;HPM_P2
2022/08/17 00:00:47;;;;;;;1.13;1.13;;;;;;;;;;5028552;28;20235;-56
2022/08/17 00:03:13;;;;;;;1.10;1.10;;;;;;;;;;5028178;28;20227;-56
2022/08/17 00:05:43;;;;;;;1.10;1.10;;;;;;;;;;5025590;28;20649;-56
2022/08/17 00:08:10;;;;;;;1.00;1.00;;;;;;;;;;5035721;28;20212;-56
2022/08/17 00:10:36;;;;;;;1.00;1.00;;;;;;;;;;5039869;28;20224;-56
2022/08/17 00:13:09;;;;;;;1.10;1.10;;;;;;;;;;5027499;28;20274;-56
2022/08/17 00:15:35;;;;;;;1.00;1.00;;;;;;;;;;5019615;28;20337;-56
2022/08/17 00:18:01;;;;;;;0.97;0.97;;;;;;;;;;5014689;28;20997;-56
2022/08/17 00:20:27;;;;;;;1.00;1.00;;;;;;;;;;5037543;28;20278;-56
2022/08/17 00:23:06;;;;;;;1.00;1.00;;;;;;;;;;5030961;28;20227;-56
2022/08/17 00:25:32;;;;;;;1.00;1.00;;;;;;;;;;5025329;28;20224;-56
2022/08/17 00:27:58;;;;;;;0.90;0.90;;;;;;;;;;5026747;28;20227;-56
2022/08/17 00:30:24;;;;;;;1.20;1.20;;;;;;;;;;5042137;28;20300;-56
2022/08/17 00:32:50;;;;;;;1.00;1.00;;;;;;;;;;5028259;28;20216;-56
2022/08/17 00:35:17;;;;;;;1.00;1.00;;;;;;;;;;5024753;28;20257;-56
2022/08/17 00:37:43;;;;;;;1.00;1.00;;;;;;;;;;5018104;28;20224;-56
2022/08/17 00:40:10;;;;;;;1.30;1.30;;;;;;;;;;5022036;28;20825;-56
2022/08/17 00:42:36;;;;;;;1.00;1.00;;;;;;;;;;5005570;28;20250;-56
2022/08/17 00:45:03;;;;;;;0.90;0.90;;;;;;;;;;5026464;28;20215;-56
2022/08/17 00:47:29;;;;;;;1.10;1.10;;;;;;;;;;5018160;28;20720;-56
2022/08/17 00:49:55;;;;;;;1.00;1.00;;;;;;;;;;5014264;28;20250;-56
2022/08/17 00:52:22;;;;;;;1.00;1.00;;;;;;;;;;5023514;28;20232;-56
2022/08/17 00:54:50;;;;;;;1.20;1.20;;;;;;;;;;5012160;28;20261;-56
2022/08/17 00:57:20;;;;;;;1.00;1.00;;;;;;;;;;5016665;28;20223;-56
2022/08/17 00:59:49;;;;;;;1.00;1.00;;;;;;;;;;5030660;28;20250;-56
2022/08/17 01:02:15;;;;;;;1.00;1.00;;;;;;;;;;5020545;28;20254;-56
2022/08/17 01:04:41;;;;;;;0.97;0.97;;;;;;;;;;5037335;28;21182;-56
2022/08/17 01:07:10;;;;;;;1.20;1.20;;;;;;;;;;5028385;28;20623;-56
2022/08/17 01:09:36;;;;;;;1.00;1.00;;;;;;;;;;5013818;28;20233;-56
2022/08/17 01:12:02;;;;;;;1.00;1.00;;;;;;;;;;5025829;28;20623;-56
2022/08/17 01:14:28;;;;;;;1.10;1.10;;;;;;;;;;5019818;28;20228;-56
2022/08/17 01:16:54;;;;;;;1.17;1.17;;;;;;;;;;5032855;28;20238;-56
2022/08/17 01:19:24;;;;;;;1.10;1.10;;;;;;;;;;5031089;28;20224;-56
2022/08/17 01:21:52;;;;;;;1.00;1.00;;;;;;;;;;5029504;28;20228;-56
2022/08/17 01:24:18;;;;;;;0.90;0.90;;;;;;;;;;5033373;28;20236;-56
2022/08/17 01:26:44;;;;;;;0.97;0.97;;;;;;;;;;5029380;28;20680;-56
2022/08/17 01:29:11;;;;;;;1.10;1.10;;;;;;;;;;5022195;28;20293;-56
2022/08/17 01:31:40;;;;;;;1.07;1.07;;;;;;;;;;5027152;28;20591;-56
2022/08/17 01:34:07;;;;;;;1.10;1.10;;;;;;;;;;5018917;28;20225;-55
2022/08/17 01:36:33;;;;;;;1.17;1.17;;;;;;;;;;5017693;28;20259;-56
2022/08/17 01:38:59;;;;;;;0.90;0.90;;;;;;;;;;5026016;28;20219;-56
2022/08/17 01:41:25;;;;;;;1.00;1.00;;;;;;;;;;5037706;28;20255;-56
2022/08/17 01:43:52;;;;;;;0.90;0.90;;;;;;;;;;5018140;28;20239;-55
2022/08/17 01:46:21;;;;;;;1.30;1.30;;;;;;;;;;5002082;28;20697;-56
2022/08/17 01:48:47;;;;;;;1.00;1.00;;;;;;;;;;5015662;28;20225;-56
2022/08/17 01:51:14;;;;;;;1.00;1.00;;;;;;;;;;5004023;28;21744;-56
2022/08/17 01:53:41;;;;;;;1.00;1.00;;;;;;;;;;5022139;28;20231;-56
2022/08/17 01:56:10;;;;;;;1.10;1.10;;;;;;;;;;5029502;28;20220;-56
2022/08/17 01:58:36;;;;;;;1.00;1.00;;;;;;;;;;5003149;28;21350;-55
2022/08/17 02:01:03;;;;;;;1.10;1.10;;;;;;;;;;5023703;28;20244;-56
2022/08/17 02:03:29;;;;;;;1.20;1.20;;;;;;;;;;5019027;28;22094;-56
2022/08/17 02:05:55;;;;;;;1.10;1.10;;;;;;;;;;5018679;28;20593;-56
2022/08/17 02:08:21;;;;;;;1.00;1.00;;;;;;;;;;5018029;28;20229;-56
2022/08/17 02:10:47;;;;;;;1.10;1.10;;;;;;;;;;5031106;28;20223;-56
2022/08/17 02:13:13;;;;;;;1.00;1.00;;;;;;;;;;5029639;28;20228;-56
2022/08/17 02:15:40;;;;;;;1.10;1.10;;;;;;;;;;5033944;28;20681;-56
2022/08/17 02:18:06;;;;;;;1.13;1.13;;;;;;;;;;5034816;28;20220;-56
2022/08/17 02:20:32;;;;;;;1.10;1.10;;;;;;;;;;5042337;28;20232;-56
2022/08/17 02:23:00;;;;;;;1.10;1.10;;;;;;;;;;5026672;28;20338;-56
2022/08/17 02:25:26;;;;;;;1.10;1.10;;;;;;;;;;5030250;28;20313;-56
2022/08/17 02:27:52;;;;;;;1.00;1.00;;;;;;;;;;5008890;28;20724;-56
2022/08/17 02:30:18;;;;;;;1.00;1.00;;;;;;;;;;5025618;28;20229;-55
2022/08/17 02:32:44;;;;;;;1.00;1.00;;;;;;;;;;5032459;28;20224;-56
2022/08/17 02:35:12;;;;;;;1.07;1.07;;;;;;;;;;5032623;28;20696;-56
2022/08/17 02:37:38;;;;;;;1.10;1.10;;;;;;;;;;5044479;28;20223;-56
2022/08/17 02:40:04;;;;;;;1.03;1.03;;;;;;;;;;5038690;28;20893;-56
2022/08/17 02:42:35;;;;;;;1.20;1.20;;;;;;;;;;5029809;28;20271;-56
2022/08/17 02:45:01;;;;;;;1.00;1.00;;;;;;;;;;5043977;28;20249;-56
2022/08/17 02:47:27;;;;;;;1.00;1.00;;;;;;;;;;5045112;28;21268;-56
2022/08/17 02:49:53;;;;;;;1.10;1.10;;;;;;;;;;5038665;28;20227;-56
2022/08/17 02:52:19;;;;;;;1.10;1.10;;;;;;;;;;5040923;28;20216;-56
2022/08/17 02:54:45;;;;;;;1.00;1.00;;;;;;;;;;5040591;28;20235;-56
2022/08/17 02:57:11;;;;;;;1.13;1.13;;;;;;;;;;5042706;28;20688;-56
2022/08/17 02:59:38;;;;;;;1.10;1.10;;;;;;;;;;5035449;28;20263;-56
2022/08/17 03:02:05;;;;;;;1.10;1.10;;;;;;;;;;5032380;28;21458;-56
2022/08/17 03:04:31;;;;;;;1.00;1.00;;;;;;;;;;5025492;28;20229;-56
2022/08/17 03:06:57;;;;;;;1.00;1.00;;;;;;;;;;5017513;28;20309;-56
2022/08/17 03:09:23;;;;;;;1.00;1.00;;;;;;;;;;5027224;28;20239;-56
2022/08/17 03:11:50;;;;;;;1.10;1.10;;;;;;;;;;5024294;28;20227;-56
2022/08/17 03:14:17;;;;;;;1.10;1.10;;;;;;;;;;5031225;28;20268;-56
2022/08/17 03:16:42;;;;;;;1.10;1.10;;;;;;;;;;5031947;28;20223;-56
2022/08/17 03:19:08;;;;;;;1.03;1.03;;;;;;;;;;5021709;28;20224;-56
2022/08/17 03:21:34;;;;;;;1.00;1.00;;;;;;;;;;5027639;28;20227;-56
2022/08/17 03:24:00;;;;;;;1.20;1.20;;;;;;;;;;5030650;28;20215;-56
2022/08/17 03:26:26;;;;;;;1.00;1.00;;;;;;;;;;5027338;28;20218;-56
2022/08/17 03:28:52;;;;;;;1.00;1.00;;;;;;;;;;5032407;28;20300;-56
2022/08/17 03:31:20;;;;;;;0.90;0.90;;;;;;;;;;5026689;28;20224;-56
2022/08/17 03:33:46;;;;;;;1.10;1.10;;;;;;;;;;5022458;28;20220;-56
2022/08/17 03:36:12;;;;;;;1.03;1.03;;;;;;;;;;5031554;28;20648;-56
2022/08/17 03:38:38;;;;;;;0.90;0.90;;;;;;;;;;5038445;28;20311;-56
2022/08/17 03:41:04;;;;;;;1.00;1.00;;;;;;;;;;5028834;28;20237;-56
2022/08/17 03:43:31;;;;;;;1.10;1.10;;;;;;;;;;5032235;28;20211;-55
2022/08/17 03:57:10;;;;;;;1.03;1.03;;;;;;;;;;5034382;28;20234;-56
2022/08/17 03:59:36;;;;;;;1.20;1.20;;;;;;;;;;5020846;28;20236;-56
2022/08/17 04:02:06;;;;;;;0.90;0.90;;;;;;;;;;5012706;28;20235;-56
2022/08/17 04:04:32;;;;;;;1.40;1.40;;;;;;;;;;5011437;28;20676;-56
2022/08/17 04:06:58;;;;;;;1.00;1.00;;;;;;;;;;5002746;28;20259;-55
2022/08/17 04:09:24;;;;;;;1.10;1.10;;;;;;;;;;5027677;28;20228;-56
2022/08/17 04:11:50;;;;;;;1.00;1.00;;;;;;;;;;5016588;28;20556;-56
2022/08/17 04:14:16;;;;;;;1.10;1.10;;;;;;;;;;5017244;28;20583;-56
2022/08/17 04:16:42;;;;;;;0.90;0.90;;;;;;;;;;5028120;28;20224;-56
2022/08/17 04:19:08;;;;;;;1.00;1.00;;;;;;;;;;5007510;28;20691;-56
2022/08/17 04:21:34;;;;;;;1.00;1.00;;;;;;;;;;5033102;28;20310;-56
2022/08/17 04:24:00;;;;;;;1.10;1.10;;;;;;;;;;5036096;28;20223;-56
2022/08/17 04:26:27;;;;;;;1.10;1.10;;;;;;;;;;5040679;28;20216;-56
2022/08/17 04:28:53;;;;;;;0.90;0.90;;;;;;;;;;5039388;28;20237;-55
2022/08/17 04:31:19;;;;;;;1.10;1.10;;;;;;;;;;5037871;28;20732;-56
2022/08/17 04:33:45;;;;;;;1.10;1.10;;;;;;;;;;5041026;28;20791;-56
2022/08/17 04:36:12;;;;;;;1.00;1.00;;;;;;;;;;5023288;28;20244;-56
2022/08/17 04:38:39;;;;;;;1.20;1.20;;;;;;;;;;5037990;28;20337;-56
2022/08/17 04:43:53;;;;;;;1.00;1.00;;;;;;;;;;5034820;28;20257;-56
2022/08/17 04:46:20;;;;;;;1.10;1.10;;;;;;;;;;5027620;28;20227;-56
2022/08/17 04:48:46;;;;;;;1.20;1.20;;;;;;;;;;5036145;28;20228;-56
2022/08/17 04:51:33;;;;;;;1.10;1.10;;;;;;;;;;5029365;28;20294;-56
2022/08/17 04:54:00;;;;;;;1.00;1.00;;;;;;;;;;5016812;28;20239;-56
2022/08/17 04:56:26;;;;;;;0.90;0.90;;;;;;;;;;5039435;28;20237;-56
2022/08/17 04:58:53;;;;;;;1.00;1.00;;;;;;;;;;5044933;28;20306;-55
2022/08/17 05:01:19;;;;;;;1.10;1.10;;;;;;;;;;5035215;28;20238;-56
2022/08/17 05:03:45;;;;;;;1.13;1.13;;;;;;;;;;5027155;28;20234;-55
2022/08/17 05:06:11;;;;;;;1.00;1.00;;;;;;;;;;5029786;28;20224;-56
2022/08/17 05:08:37;;;;;;;1.03;1.03;;;;;;;;;;5035113;28;20227;-56
2022/08/17 05:11:04;;;;;;;1.00;1.00;;;;;;;;;;5011650;28;20838;-56
2022/08/17 05:13:30;;;;;;;0.90;0.90;;;;;;;;;;5009835;28;20561;-56
2022/08/17 05:15:57;;;;;;;1.00;1.00;;;;;;;;;;5027186;28;20288;-56
2022/08/17 05:18:23;;;;;;;1.10;1.10;;;;;;;;;;5023387;28;20274;-56
2022/08/17 05:20:49;;;;;;;1.03;1.03;;;;;;;;;;5021237;28;20698;-56
2022/08/17 05:23:16;;;;;;;1.20;1.20;;;;;;;;;;5018711;28;20221;-56
2022/08/17 05:25:43;;;;;;;1.03;1.03;;;;;;;;;;5032991;28;20228;-56
2022/08/17 05:28:09;;;;;;;1.00;1.00;;;;;;;;;;5038838;28;20250;-56
2022/08/17 05:30:35;;;;;;;1.10;1.10;;;;;;;;;;5051005;28;20222;-56
2022/08/17 05:33:03;;;;;;;1.00;1.00;;;;;;;;;;5027808;28;20228;-57
2022/08/17 05:35:30;;;;;;;0.90;0.90;;;;;;;;;;5023346;28;20233;-56
2022/08/17 05:37:56;;;;;;;1.00;1.00;;;;;;;;;;5030338;28;20219;-56
2022/08/17 05:40:22;;;;;;;1.00;1.00;;;;;;;;;;5034065;28;20227;-56
2022/08/17 05:42:48;;;;;;;1.00;1.00;;;;;;;;;;5023406;28;20295;-56
2022/08/17 05:45:14;;;;;;;1.03;1.03;;;;;;;;;;5040335;28;20246;-56
2022/08/17 05:47:40;;;;;;;1.03;1.03;;;;;;;;;;5038068;28;20228;-56
2022/08/17 05:50:07;;;;;;;1.00;1.00;;;;;;;;;;5029574;28;20233;-56
2022/08/17 05:53:08;;;;;;;0.90;0.90;;;;;;;;;;5035242;28;20860;-56
2022/08/17 05:55:40;;;;;;;1.00;1.00;;;;;;;;;;4980423;28;20226;-56
2022/08/17 05:58:08;;;;;;;1.03;1.03;;;;;;;;;;5002597;28;20771;-56
2022/08/17 06:00:37;;;;;;;1.00;1.00;;;;;;;;;;5044984;28;20230;-56
2022/08/17 06:03:03;;;;;;;1.13;1.13;;;;;;;;;;5034881;28;20238;-56
2022/08/17 06:05:36;;;;;;;1.03;1.03;;;;;;;;;;5026151;28;20301;-56
2022/08/17 06:08:23;;;;;;;0.90;0.90;;;;;;;;;;5031783;28;20229;-56
2022/08/17 06:10:49;;;;;;;1.00;1.00;;;;;;;;;;5042571;28;20770;-56
2022/08/17 06:13:18;;;;;;;1.07;1.07;;;;;;;;;;5021553;28;20219;-56
2022/08/17 06:15:55;;;;;;;1.02;1.02;;;;;;;;;;5042954;28;20221;-55
2022/08/17 06:18:21;;;;;;;1.00;1.00;;;;;;;;;;5044405;28;20282;-56
2022/08/17 06:20:54;;;;;;;1.02;1.02;;;;;;;;;;5029947;28;20223;-56
2022/08/17 06:23:29;;;;;;;0.90;0.90;;;;;;;;;;5028095;28;20304;-56
2022/08/17 06:25:57;;;;;;;1.08;1.08;;;;;;;;;;5037126;28;20301;-55
2022/08/17 06:28:43;;;;;;;1.15;1.15;;;;;;;;;;5027642;28;20227;-56
2022/08/17 06:31:15;;;;;;;1.00;1.00;;;;;;;;;;5020291;28;20243;-56
2022/08/17 06:33:46;;;;;;;1.00;1.00;;;;;;;;;;5026873;28;20232;-56
2022/08/17 06:36:26;;;;;;;0.90;0.90;;;;;;;;;;5037549;28;20229;-56
2022/08/17 06:38:52;;;;;;;1.10;1.10;;;;;;;;;;5036082;28;20306;-56
2022/08/17 06:41:25;;;;;;;1.00;1.00;;;;;;;;;;5051443;28;20967;-57
2022/08/17 06:44:03;;;;;;;0.90;0.90;;;;;;;;;;5030028;28;20302;-56
2022/08/17 06:46:40;;;;;;;0.90;0.90;;;;;;;;;;5043104;28;20321;-56
2022/08/17 06:49:18;;;;;;;0.90;0.90;;;;;;;;;;5032898;28;20224;-56
2022/08/17 06:51:49;;;;;;;1.00;1.00;;;;;;;;;;5038788;28;21216;-56
2022/08/17 06:54:21;;;;;;;0.90;0.90;;;;;;;;;;5020121;28;20618;-56
2022/08/17 06:56:48;;;;;;;0.90;0.90;;;;;;;;;;5036562;28;20313;-56
2022/08/17 06:59:16;;;;;;;1.00;1.00;;;;;;;;;;5023959;28;20221;-56
2022/08/17 07:01:44;;;;;;;1.10;1.10;;;;;;;;;;5035753;28;20235;-56
2022/08/17 07:04:13;;;;;;;1.13;1.13;;;;;;;;;;5024857;28;20586;-56
2022/08/17 07:06:47;;;;;;;1.00;1.00;;;;;;;;;;5035109;28;20251;-57
2022/08/17 07:09:19;;;;;;;1.20;1.20;;;;;;;;;;5042553;28;20259;-56
2022/08/17 07:12:04;;;;;;;1.10;1.10;;;;;;;;;;5029745;28;20215;-56
2022/08/17 07:14:35;;;;;;;0.90;0.90;;;;;;;;;;5039616;28;20216;-56
2022/08/17 07:17:02;;;;;;;1.00;1.00;;;;;;;;;;5033225;28;20228;-56
2022/08/17 07:19:30;;;;;;;0.90;0.90;;;;;;;;;;5035440;28;20304;-56
2022/08/17 07:22:02;;;;;;;1.00;1.00;;;;;;;;;;5035646;28;20226;-56
2022/08/17 07:24:28;;;;;;;1.10;1.10;;;;;;;;;;5043957;28;20232;-57
2022/08/17 07:27:14;;;;;;;1.10;1.10;;;;;;;;;;5038871;28;20254;-57
2022/08/17 07:30:00;;;;;;;1.15;1.15;;;;;;;;;;5040666;28;20584;-57
2022/08/17 07:32:30;;;;;;;1.02;1.02;;;;;;;;;;5029132;28;20751;-56
2022/08/17 07:34:59;;;;;;;1.13;1.13;;;;;;;;;;5037092;28;20228;-56
2022/08/17 07:37:25;;;;;;;1.02;1.02;;;;;;;;;;5032734;28;21776;-56
2022/08/17 07:39:51;;;;;;;1.08;1.08;;;;;;;;;;5044230;28;20780;-56
2022/08/17 07:42:17;;;;;;;1.08;1.08;;;;;;;;;;5043911;28;20219;-56
2022/08/17 07:44:54;;;;;;;1.10;1.10;;;;;;;;;;5036973;28;20216;-56
2022/08/17 07:50:12;;;;;;;1.10;1.10;;;;;;;;;;5025204;28;20262;-56
2022/08/17 07:52:38;;;;;;;1.05;1.05;;;;;;;;;;5024909;28;20219;-56
2022/08/17 07:55:18;;;;;;;1.20;1.20;;;;;;;;;;5042897;28;20631;-56
2022/08/17 07:57:44;;;;;;;1.00;1.00;;;;;;;;;;5030844;28;20217;-56
2022/08/17 08:00:15;;;;;;;1.10;1.10;;;;;;;;;;5041680;28;20745;-56
2022/08/17 08:02:42;;;;;;;1.00;1.00;;;;;;;;;;5020135;28;20912;-57
2022/08/17 08:05:13;;;;;;;1.00;1.00;;;;;;;;;;5020993;28;20378;-56
2022/08/17 08:07:41;;;;;;;1.30;1.30;;;;;;;;;;5019286;28;20255;-56
2022/08/17 08:10:11;;;;;;;1.10;1.10;;;;;;;;;;5027707;28;20696;-56
2022/08/17 08:12:41;;;;;;;1.10;1.10;;;;;;;;;;5030731;28;20286;-56
2022/08/17 08:15:09;;;;;;;1.10;1.10;;;;;;;;;;5038466;28;20227;-56
2022/08/17 08:17:36;;;;;;;1.17;1.17;;;;;;;;;;5041892;28;20274;-56
2022/08/17 08:20:04;;;;;;;1.00;1.00;;;;;;;;;;5027460;28;20261;-56
2022/08/17 08:22:51;;;;;;;1.10;1.10;;;;;;;;;;5028414;28;20217;-56
2022/08/17 08:25:20;;;;;;;1.08;1.08;;;;;;;;;;5033382;28;20224;-57
2022/08/17 08:27:49;;;;;;;1.00;1.00;;;;;;;;;;5040532;28;20232;-56
2022/08/17 08:30:17;;;;;;;1.00;1.00;;;;;;;;;;5040586;28;20224;-57
2022/08/17 08:32:44;;;;;;;1.00;1.00;;;;;;;;;;5011233;28;20228;-56
2022/08/17 08:35:21;;;;;;;1.20;1.20;;;;;;;;;;5036903;28;20215;-56
2022/08/17 08:37:50;;;;;;;1.10;1.10;;;;;;;;;;5035958;28;20255;-56
2022/08/17 08:40:19;;;;;;;1.00;1.00;;;;;;;;;;5039276;28;20231;-56
2022/08/17 08:42:49;;;;;;;1.13;1.13;;;;;;;;;;5040431;28;20216;-56
2022/08/17 08:45:18;;;;;;;1.10;1.10;;;;;;;;;;5022258;28;20252;-56
2022/08/17 08:47:56;;;;;;;1.00;1.00;;;;;;;;;;5030450;28;20250;-56
2022/08/17 08:50:25;;;;;;;1.10;1.10;;;;;;;;;;5035118;28;20234;-56
2022/08/17 08:52:54;;;;;;;1.00;1.00;;;;;;;;;;5024205;28;20766;-57
2022/08/17 08:55:20;;;;;;;1.05;1.05;;;;;;;;;;5009642;28;20311;-56
2022/08/17 08:58:09;;;;;;;1.02;1.02;;;;;;;;;;5029929;28;20696;-56
2022/08/17 09:00:38;;;;;;;1.10;1.10;;;;;;;;;;5027396;28;20249;-56
2022/08/17 09:03:22;;;;;;;1.00;1.00;;;;;;;;;;5034073;28;20614;-56
2022/08/17 09:05:55;;;;;;;1.00;1.00;;;;;;;;;;5041476;28;20323;-56
2022/08/17 09:08:24;;;;;;;1.10;1.10;;;;;;;;;;5020608;28;20228;-56
2022/08/17 09:11:06;;;;;;;1.00;1.00;;;;;;;;;;5042016;28;20371;-56
2022/08/17 09:13:36;;;;;;;1.00;1.00;;;;;;;;;;5026157;28;20229;-56
2022/08/17 09:16:04;;;;;;;1.00;1.00;;;;;;;;;;5033960;28;21111;-56
2022/08/17 09:18:35;;;;;;;1.00;1.00;;;;;;;;;;5027540;28;20235;-56
2022/08/17 09:21:13;;;;;;;1.00;1.00;;;;;;;;;;5043298;28;20224;-56
2022/08/17 09:23:40;;;;;;;1.00;1.00;;;;;;;;;;5036602;28;20228;-56
2022/08/17 09:26:10;;;;;;;1.08;1.08;;;;;;;;;;5037286;28;20596;-56
2022/08/17 09:28:36;;;;;;;1.08;1.08;;;;;;;;;;5035873;28;20238;-56
2022/08/17 09:31:14;;;;;;;0.90;0.90;;;;;;;;;;5031100;28;20710;-56
2022/08/17 09:33:42;;;;;;;0.93;0.93;;;;;;;;;;5026087;28;20224;-56
2022/08/17 09:36:11;;;;;;;1.00;1.00;;;;;;;;;;5018083;28;20710;-56
2022/08/17 09:38:43;;;;;;;1.00;1.00;;;;;;;;;;5026170;28;20227;-57
2022/08/17 09:41:12;;;;;;;1.20;1.20;;;;;;;;;;5044080;28;20253;-56
2022/08/17 09:43:58;;;;;;;1.08;1.08;;;;;;;;;;5037000;28;20326;-56
2022/08/17 09:46:25;;;;;;;0.93;0.93;;;;;;;;;;5033382;28;20352;-56
2022/08/17 09:48:54;;;;;;;1.02;1.02;;;;;;;;;;5036992;28;20684;-56
2022/08/17 09:51:34;;;;;;;0.90;0.90;;;;;;;;;;5028956;28;20230;-57
2022/08/17 09:54:00;;;;;;;1.00;1.00;;;;;;;;;;5042493;28;20242;-56
2022/08/17 09:56:26;;;;;;;1.00;1.00;;;;;;;;;;5035904;28;20228;-56
2022/08/17 09:59:02;;;;;;;1.00;1.00;;;;;;;;;;5036183;28;20220;-56
2022/08/17 10:01:39;;;;;;;1.08;1.08;;;;;;;;;;5038644;28;20263;-56
2022/08/17 10:04:08;;;;;;;1.10;1.10;;;;;;;;;;5030365;28;20224;-56
2022/08/17 10:06:36;;;;;;;1.10;1.10;;;;;;;;;;5041868;28;21355;-56
2022/08/17 10:09:07;;;;;;;1.00;1.00;;;;;;;;;;5007889;28;20228;-56
2022/08/17 10:14:36;;;;;;;1.00;1.00;;;;;;;;;;5040257;28;20242;-57
2022/08/17 10:17:03;;;;;;;1.00;1.00;;;;;;;;;;5029631;28;20605;-56
2022/08/17 10:19:32;;;;;;;1.00;1.00;;;;;;;;;;5032816;28;20215;-56
2022/08/17 10:27:41;;;;;;;0.90;0.90;;;;;;;;;;5030499;28;20368;-56
2022/08/17 10:30:08;;;;;;;0.93;0.93;;;;;;;;;;5034708;28;20218;-56
2022/08/17 10:32:44;;;;;;;1.00;1.00;;;;;;;;;;5025248;28;20306;-56
2022/08/17 10:35:16;;;;;;;1.00;1.00;;;;;;;;;;5043034;28;20215;-55
2022/08/17 10:37:45;;;;;;;1.00;1.00;;;;;;;;;;5035181;28;20248;-56
2022/08/17 10:40:11;;;;;;;1.00;1.00;;;;;;;;;;5026771;28;20273;-56
2022/08/17 10:42:42;;;;;;;1.00;1.00;;;;;;;;;;5040948;28;20232;-56
2022/08/17 10:45:28;;;;;;;0.90;0.90;;;;;;;;;;5032107;28;20505;-56
2022/08/17 10:48:06;;;;;;;0.90;0.90;;;;;;;;;;5048015;28;20214;-56
2022/08/17 10:50:51;;;;;;;0.90;0.90;;;;;;;;;;5050415;28;20223;-56
2022/08/17 10:53:32;;;;;;;1.00;1.00;;;;;;;;;;5032882;28;20224;-56
2022/08/17 10:56:13;;;;;;;0.95;0.95;;;;;;;;;;5033015;28;20241;-56
2022/08/17 10:58:48;;;;;;;1.05;1.05;;;;;;;;;;5041322;28;20671;-56
2022/08/17 11:01:14;;;;;;;1.10;1.10;;;;;;;;;;5023731;28;20239;-57
2022/08/17 11:03:53;;;;;;;0.90;0.90;;;;;;;;;;5006478;28;20606;-56
2022/08/17 11:06:31;;;;;;;1.10;1.10;;;;;;;;;;5017117;28;20737;-56
2022/08/17 11:09:01;;;;;;;1.00;1.00;;;;;;;;;;5021217;28;20234;-56
2022/08/17 11:11:40;;;;;;;1.10;1.10;;;;;;;;;;5036446;28;20294;-57
2022/08/17 11:14:07;;;;;;;0.93;0.93;;;;;;;;;;5021128;28;20298;-56
2022/08/17 11:16:46;;;;;;;1.00;1.00;;;;;;;;;;5036898;28;20239;-56
2022/08/17 11:19:21;;;;;;;1.00;1.00;;;;;;;;;;5025924;28;20371;-56
2022/08/17 11:22:06;;;;;;;0.82;0.82;;;;;;;;;;5049674;28;20223;-57
2022/08/17 11:24:32;;;;;;;0.90;0.90;;;;;;;;;;5043927;28;20235;-57
2022/08/17 11:27:02;;;;;;;0.95;0.95;;;;;;;;;;5032015;28;20580;-57
2022/08/17 11:29:35;;;;;;;0.70;0.70;;;;;;;;;;5033304;28;20227;-57
2022/08/17 11:32:14;;;;;;;0.80;0.80;;;;;;;;;;5039990;28;20720;-57
2022/08/17 11:34:41;;;;;;;0.80;0.80;;;;;;;;;;5033500;28;20232;-56
2022/08/17 11:37:07;;;;;;;0.70;0.70;;;;;;;;;;5026428;28;20664;-56
2022/08/17 11:39:52;;;;;;;0.80;0.80;;;;;;;;;;5040705;28;20223;-56
2022/08/17 11:42:29;;;;;;;0.70;0.70;;;;;;;;;;5035147;28;20273;-56
2022/08/17 11:44:59;;;;;;;0.60;0.60;;;;;;;;;;5032006;28;20724;-56
2022/08/17 11:53:28;;;;;;;0.68;0.68;;;;;;;;;;5035090;28;20242;-56
2022/08/17 11:55:57;;;;;;;0.70;0.70;;;;;;;;;;5041628;28;20223;-56
2022/08/17 11:58:29;;;;;;;0.70;0.70;;;;;;;;;;5036940;28;20691;-56
2022/08/17 12:00:56;;;;;;;0.60;0.60;;;;;;;;;;5043984;28;20223;-56
2022/08/17 12:03:25;;;;;;;0.60;0.60;;;;;;;;;;5032695;28;20350;-57
2022/08/17 12:05:59;;;;;;;0.60;0.60;;;;;;;;;;5034494;28;20228;-56
2022/08/17 12:08:26;;;;;;;0.60;0.60;;;;;;;;;;5035028;28;20223;-56
2022/08/17 12:10:57;;;;;;;0.70;0.70;;;;;;;;;;5036304;28;20228;-56
2022/08/17 12:13:23;;;;;;;0.68;0.68;;;;;;;;;;5041794;28;20219;-56
2022/08/17 12:15:51;;;;;;;0.60;0.60;;;;;;;;;;5031919;28;20231;-56
2022/08/17 12:18:21;;;;;;;0.70;0.70;;;;;;;;;;5026574;28;20559;-56
2022/08/17 12:20:50;;;;;;;0.60;0.60;;;;;;;;;;5041721;28;20234;-56
2022/08/17 12:23:16;;;;;;;0.70;0.70;;;;;;;;;;5035120;28;20237;-57
2022/08/17 12:25:42;;;;;;;0.60;0.60;;;;;;;;;;5037179;28;20216;-56
2022/08/17 12:28:21;;;;;;;0.65;0.65;;;;;;;;;;5042716;28;20243;-56
2022/08/17 12:30:48;;;;;;;0.70;0.70;;;;;;;;;;5022275;28;20258;-56
2022/08/17 12:33:14;;;;;;;0.60;0.60;;;;;;;;;;5036314;28;20688;-56
2022/08/17 12:35:41;;;;;;;0.60;0.60;;;;;;;;;;5041261;28;20262;-56
2022/08/17 12:38:08;;;;;;;0.60;0.60;;;;;;;;;;5027233;28;20265;-56
2022/08/17 12:40:34;;;;;;;0.70;0.70;;;;;;;;;;5034407;28;20606;-56
2022/08/17 12:43:01;;;;;;;0.70;0.70;;;;;;;;;;5032686;28;20224;-56
2022/08/17 12:45:29;;;;;;;0.70;0.70;;;;;;;;;;5047472;28;20223;-56
2022/08/17 12:48:06;;;;;;;0.80;0.80;;;;;;;;;;5050433;28;20211;-57
2022/08/17 12:50:32;;;;;;;0.88;0.88;;;;;;;;;;5038596;28;20310;-56
2022/08/17 12:52:58;;;;;;;0.80;0.80;;;;;;;;;;5032626;28;20562;-56
2022/08/17 12:55:24;;;;;;;0.98;0.98;;;;;;;;;;5040920;28;20223;-56
2022/08/17 12:57:54;;;;;;;0.93;0.93;;;;;;;;;;5036533;28;20605;-57
2022/08/17 13:00:22;;;;;;;0.80;0.80;;;;;;;;;;5039657;28;20323;-56
2022/08/17 13:02:48;;;;;;;0.85;0.85;;;;;;;;;;5028925;28;20379;-56
2022/08/17 13:05:22;;;;;;;0.85;0.85;;;;;;;;;;5031532;28;20339;-56
2022/08/17 13:07:48;;;;;;;0.98;0.98;;;;;;;;;;5026107;28;20230;-56
2022/08/17 13:10:20;;;;;;;0.90;0.90;;;;;;;;;;5027146;28;20221;-56
2022/08/17 13:12:48;;;;;;;0.90;0.90;;;;;;;;;;5026698;28;20235;-56
2022/08/17 13:15:21;;;;;;;0.90;0.90;;;;;;;;;;5035319;28;20220;-56
2022/08/17 13:17:55;;;;;;;0.90;0.90;;;;;;;;;;5025792;28;20223;-57
2022/08/17 13:20:21;;;;;;;0.90;0.90;;;;;;;;;;5037452;28;20718;-57
2022/08/17 13:22:55;;;;;;;0.80;0.80;;;;;;;;;;5029726;28;20221;-57
2022/08/17 13:25:25;;;;;;;0.82;0.82;;;;;;;;;;5023687;28;20227;-57
2022/08/17 13:27:52;;;;;;;0.98;0.98;;;;;;;;;;5030603;28;20317;-57
2022/08/17 13:30:27;;;;;;;0.90;0.90;;;;;;;;;;5021106;28;20273;-56
2022/08/17 13:32:53;;;;;;;0.93;0.93;;;;;;;;;;5034016;28;20790;-56
2022/08/17 13:35:26;;;;;;;0.90;0.90;;;;;;;;;;5008832;28;20330;-57
2022/08/17 13:38:15;;;;;;;0.90;0.90;;;;;;;;;;5028471;28;20234;-57
2022/08/17 13:40:43;;;;;;;1.00;1.00;;;;;;;;;;5012265;28;20249;-57
2022/08/17 13:43:09;;;;;;;0.80;0.80;;;;;;;;;;5028204;28;20331;-56
2022/08/17 13:45:36;;;;;;;0.93;0.93;;;;;;;;;;5043870;28;20565;-56
2022/08/17 13:48:08;;;;;;;0.90;0.90;;;;;;;;;;5047609;28;20309;-56
2022/08/17 13:50:39;;;;;;;1.00;1.00;;;;;;;;;;5047824;28;20224;-57
2022/08/17 13:53:15;;;;;;;0.90;0.90;;;;;;;;;;5048547;28;20223;-56
2022/08/17 13:55:46;;;;;;;0.90;0.90;;;;;;;;;;5039230;28;20656;-56
2022/08/17 13:58:12;;;;;;;1.05;1.05;;;;;;;;;;5022303;28;20234;-56
2022/08/17 14:00:39;;;;;;;0.90;0.90;;;;;;;;;;5014646;28;20788;-56
2022/08/17 14:03:05;;;;;;;0.90;0.90;;;;;;;;;;5026309;28;20699;-56
2022/08/17 14:05:31;;;;;;;0.90;0.90;;;;;;;;;;5023689;28;20249;-56
2022/08/17 14:07:58;;;;;;;1.00;1.00;;;;;;;;;;5017103;28;20873;-56
2022/08/17 14:10:24;;;;;;;0.90;0.90;;;;;;;;;;5018443;28;20819;-56
2022/08/17 14:12:51;;;;;;;1.00;1.00;;;;;;;;;;5022773;28;20245;-56
2022/08/17 14:15:19;;;;;;;0.90;0.90;;;;;;;;;;5036970;28;20234;-56
2022/08/17 14:17:46;;;;;;;0.90;0.90;;;;;;;;;;5036356;28;20223;-56
2022/08/17 14:20:12;;;;;;;1.02;1.02;;;;;;;;;;5033768;28;20280;-56
2022/08/17 14:22:39;;;;;;;0.90;0.90;;;;;;;;;;5041847;28;20230;-56
2022/08/17 14:25:05;;;;;;;1.00;1.00;;;;;;;;;;5039636;28;20235;-56
2022/08/17 14:27:32;;;;;;;0.93;0.93;;;;;;;;;;5021748;28;20225;-57
2022/08/17 14:29:59;;;;;;;0.90;0.90;;;;;;;;;;5038168;28;20227;-56
2022/08/17 14:32:26;;;;;;;1.10;1.10;;;;;;;;;;5036855;28;20270;-56
2022/08/17 14:34:53;;;;;;;0.90;0.90;;;;;;;;;;5026519;28;20228;-56
2022/08/17 14:37:19;;;;;;;0.90;0.90;;;;;;;;;;5030333;28;20249;-56
2022/08/17 14:39:45;;;;;;;0.98;0.98;;;;;;;;;;5030226;28;20705;-56
2022/08/17 14:42:11;;;;;;;1.00;1.00;;;;;;;;;;5036978;28;20247;-56
2022/08/17 14:44:38;;;;;;;0.90;0.90;;;;;;;;;;5040369;28;21219;-57
2022/08/17 14:47:04;;;;;;;0.90;0.90;;;;;;;;;;5039472;28;20219;-57
2022/08/17 14:49:30;;;;;;;0.90;0.90;;;;;;;;;;5038456;28;20604;-57
2022/08/17 14:51:57;;;;;;;0.90;0.90;;;;;;;;;;5040425;28;20717;-56
2022/08/17 14:54:23;;;;;;;0.80;0.80;;;;;;;;;;5027883;28;20710;-56
2022/08/17 14:56:49;;;;;;;0.93;0.93;;;;;;;;;;5043068;28;20303;-56
2022/08/17 14:59:15;;;;;;;1.00;1.00;;;;;;;;;;5040609;28;20548;-56
2022/08/17 15:01:42;;;;;;;0.90;0.90;;;;;;;;;;5028945;28;20246;-56
2022/08/17 15:04:17;;;;;;;0.80;0.80;;;;;;;;;;5023681;28;20232;-56
2022/08/17 15:06:44;;;;;;;0.85;0.85;;;;;;;;;;5027213;28;20257;-56
2022/08/17 15:09:10;;;;;;;0.90;0.90;;;;;;;;;;5032711;28;20739;-56
2022/08/17 15:11:36;;;;;;;0.93;0.93;;;;;;;;;;5032649;28;20212;-56
2022/08/17 15:14:02;;;;;;;0.60;0.60;;;;;;;;;;5033255;28;20226;-57
2022/08/17 15:16:28;;;;;;;0.60;0.60;;;;;;;;;;5036200;28;20693;-57
2022/08/17 15:18:54;;;;;;;0.70;0.70;;;;;;;;;;5040246;28;20216;-56
2022/08/17 15:21:20;;;;;;;0.70;0.70;;;;;;;;;;5040745;28;20231;-56
2022/08/17 15:23:46;;;;;;;0.60;0.60;;;;;;;;;;5034614;28;20330;-56
2022/08/17 15:26:12;;;;;;;0.70;0.70;;;;;;;;;;5043138;28;20236;-56